sensor_id;sensor_type;location;lat;lon;timestamp;temperature;humidity
20740;DHT22;10530;49.968;19.844;2022-08-04T00:03:27;16.00;99.90
20740;DHT22;10530;49.968;19.844;2022-08-04T00:08:37;16.00;99.90
20740;DHT22;10530;49.968;19.844;2022-08-04T00:13:48;15.90;99.90
20740;DHT22;10530;49.968;19.844;2022-08-04T00:19:31;15.80;99.90
20740;DHT22;10530;49.968;19.844;2022-08-04T00:24:33;15.70;99.90
20740;DHT22;10530;49.968;19.844;2022-08-04T00:29:40;15.70;99.90
20740;DHT22;10530;49.968;19.844;2022-08-04T00:34:43;15.70;99.90
20740;DHT22;10530;49.968;19.844;2022-08-04T00:39:46;15.50;99.90
20740;DHT22;10530;49.968;19.844;2022-08-04T00:50:04;15.60;99.90
20740;DHT22;10530;49.968;19.844;2022-08-04T00:55:47;15.50;99.90
20740;DHT22;10530;49.968;19.844;2022-08-04T01:01:02;15.60;99.90
20740;DHT22;10530;49.968;19.844;2022-08-04T01:22:59;15.50;99.90
20740;DHT22;10530;49.968;19.844;2022-08-04T01:33:21;15.50;99.90
20740;DHT22;10530;49.968;19.844;2022-08-04T01:38:33;15.50;99.90
20740;DHT22;10530;49.968;19.844;2022-08-04T01:43:41;15.30;99.90
20740;DHT22;10530;49.968;19.844;2022-08-04T01:48:46;15.20;99.90
20740;DHT22;10530;49.968;19.844;2022-08-04T01:53:49;15.00;99.90
20740;DHT22;10530;49.968;19.844;2022-08-04T01:58:56;14.80;99.90
20740;DHT22;10530;49.968;19.844;2022-08-04T02:03:59;14.80;99.90
20740;DHT22;10530;49.968;19.844;2022-08-04T02:09:51;14.70;99.90
20740;DHT22;10530;49.968;19.844;2022-08-04T02:15:03;14.60;99.90
20740;DHT22;10530;49.968;19.844;2022-08-04T02:20:18;14.60;99.90
20740;DHT22;10530;49.968;19.844;2022-08-04T02:25:25;14.50;99.90
20740;DHT22;10530;49.968;19.844;2022-08-04T02:30:52;14.30;99.90
20740;DHT22;10530;49.968;19.844;2022-08-04T02:36:00;14.30;99.90
20740;DHT22;10530;49.968;19.844;2022-08-04T02:41:05;14.40;99.90
20740;DHT22;10530;49.968;19.844;2022-08-04T02:46:11;14.40;99.90
20740;DHT22;10530;49.968;19.844;2022-08-04T02:51:22;14.30;99.90
20740;DHT22;10530;49.968;19.844;2022-08-04T02:56:28;14.30;99.90
20740;DHT22;10530;49.968;19.844;2022-08-04T03:01:32;14.30;99.90
20740;DHT22;10530;49.968;19.844;2022-08-04T03:17:37;14.00;99.90
20740;DHT22;10530;49.968;19.844;2022-08-04T03:29:09;14.10;99.90
20740;DHT22;10530;49.968;19.844;2022-08-04T04:30:15;14.50;99.90
20740;DHT22;10530;49.968;19.844;2022-08-04T04:35:47;14.60;99.90
20740;DHT22;10530;49.968;19.844;2022-08-04T04:57:08;15.70;99.90
20740;DHT22;10530;49.968;19.844;2022-08-04T05:13:43;16.80;99.90
20740;DHT22;10530;49.968;19.844;2022-08-04T05:19:39;17.30;99.90
20740;DHT22;10530;49.968;19.844;2022-08-04T05:24:49;17.80;99.90
20740;DHT22;10530;49.968;19.844;2022-08-04T05:29:59;18.30;99.90
20740;DHT22;10530;49.968;19.844;2022-08-04T05:35:08;18.80;99.90
20740;DHT22;10530;49.968;19.844;2022-08-04T05:40:12;19.30;99.90
20740;DHT22;10530;49.968;19.844;2022-08-04T05:45:16;19.90;99.90
20740;DHT22;10530;49.968;19.844;2022-08-04T05:50:20;20.40;99.90
20740;DHT22;10530;49.968;19.844;2022-08-04T05:55:26;20.70;99.90
20740;DHT22;10530;49.968;19.844;2022-08-04T06:00:50;21.10;99.90
20740;DHT22;10530;49.968;19.844;2022-08-04T06:05:56;21.40;99.90
20740;DHT22;10530;49.968;19.844;2022-08-04T06:11:03;21.90;99.90
20740;DHT22;10530;49.968;19.844;2022-08-04T06:16:07;22.20;99.90
20740;DHT22;10530;49.968;19.844;2022-08-04T06:21:32;22.60;99.90
20740;DHT22;10530;49.968;19.844;2022-08-04T06:26:37;23.00;99.90
20740;DHT22;10530;49.968;19.844;2022-08-04T06:31:42;23.30;99.90
20740;DHT22;10530;49.968;19.844;2022-08-04T06:37:09;23.70;99.90
20740;DHT22;10530;49.968;19.844;2022-08-04T06:42:13;24.20;99.90
20740;DHT22;10530;49.968;19.844;2022-08-04T06:47:26;24.60;99.90
20740;DHT22;10530;49.968;19.844;2022-08-04T06:52:30;24.70;99.90
20740;DHT22;10530;49.968;19.844;2022-08-04T06:57:34;25.00;99.90
20740;DHT22;10530;49.968;19.844;2022-08-04T07:02:51;25.30;99.90
20740;DHT22;10530;49.968;19.844;2022-08-04T07:07:55;25.80;99.90
20740;DHT22;10530;49.968;19.844;2022-08-04T07:13:00;25.70;99.90
20740;DHT22;10530;49.968;19.844;2022-08-04T07:18:03;25.70;99.90
20740;DHT22;10530;49.968;19.844;2022-08-04T07:23:07;26.00;99.90
20740;DHT22;10530;49.968;19.844;2022-08-04T07:28:12;26.10;99.90
20740;DHT22;10530;49.968;19.844;2022-08-04T07:33:16;26.50;99.90
20740;DHT22;10530;49.968;19.844;2022-08-04T07:38:19;26.50;99.90
20740;DHT22;10530;49.968;19.844;2022-08-04T07:43:30;26.70;99.90
20740;DHT22;10530;49.968;19.844;2022-08-04T07:48:33;26.60;99.90
20740;DHT22;10530;49.968;19.844;2022-08-04T07:53:37;26.80;97.50
20740;DHT22;10530;49.968;19.844;2022-08-04T07:58:58;26.80;94.60
20740;DHT22;10530;49.968;19.844;2022-08-04T08:04:04;27.10;92.80
20740;DHT22;10530;49.968;19.844;2022-08-04T08:09:17;27.10;92.50
20740;DHT22;10530;49.968;19.844;2022-08-04T08:14:22;27.10;92.40
20740;DHT22;10530;49.968;19.844;2022-08-04T08:19:27;26.80;85.30
20740;DHT22;10530;49.968;19.844;2022-08-04T08:24:35;27.50;88.00
20740;DHT22;10530;49.968;19.844;2022-08-04T08:29:39;27.30;82.30
20740;DHT22;10530;49.968;19.844;2022-08-04T08:34:42;27.70;85.30
20740;DHT22;10530;49.968;19.844;2022-08-04T08:40:17;27.80;84.40
20740;DHT22;10530;49.968;19.844;2022-08-04T08:51:10;28.70;78.00
20740;DHT22;10530;49.968;19.844;2022-08-04T09:12:50;29.80;61.70
20740;DHT22;10530;49.968;19.844;2022-08-04T09:23:19;29.90;57.10
20740;DHT22;10530;49.968;19.844;2022-08-04T09:28:27;30.40;57.30
20740;DHT22;10530;49.968;19.844;2022-08-04T09:34:09;30.40;55.60
20740;DHT22;10530;49.968;19.844;2022-08-04T09:39:48;29.80;51.00
20740;DHT22;10530;49.968;19.844;2022-08-04T09:50:43;31.40;55.10
20740;DHT22;10530;49.968;19.844;2022-08-04T09:56:07;30.50;48.50
20740;DHT22;10530;49.968;19.844;2022-08-04T10:01:21;30.80;45.40
20740;DHT22;10530;49.968;19.844;2022-08-04T10:22:36;31.50;41.60
20740;DHT22;10530;49.968;19.844;2022-08-04T10:28:05;32.30;42.10
20740;DHT22;10530;49.968;19.844;2022-08-04T10:34:13;32.50;41.00
20740;DHT22;10530;49.968;19.844;2022-08-04T10:39:02;31.80;41.60
20740;DHT22;10530;49.968;19.844;2022-08-04T10:44:19;32.30;42.70
20740;DHT22;10530;49.968;19.844;2022-08-04T10:49:47;32.80;42.80
20740;DHT22;10530;49.968;19.844;2022-08-04T10:55:06;33.10;39.80
20740;DHT22;10530;49.968;19.844;2022-08-04T11:00:17;32.60;38.50
20740;DHT22;10530;49.968;19.844;2022-08-04T11:05:53;32.90;38.50
20740;DHT22;10530;49.968;19.844;2022-08-04T11:16:28;33.40;38.10
20740;DHT22;10530;49.968;19.844;2022-08-04T11:21:33;32.60;37.70
20740;DHT22;10530;49.968;19.844;2022-08-04T11:26:45;32.80;35.00
20740;DHT22;10530;49.968;19.844;2022-08-04T11:31:51;33.30;38.00
20740;DHT22;10530;49.968;19.844;2022-08-04T11:37:12;33.30;35.30
20740;DHT22;10530;49.968;19.844;2022-08-04T11:48:15;33.50;34.70
20740;DHT22;10530;49.968;19.844;2022-08-04T11:52:52;34.00;38.10
20740;DHT22;10530;49.968;19.844;2022-08-04T11:57:57;33.00;33.20
20740;DHT22;10530;49.968;19.844;2022-08-04T12:08:50;33.80;40.30
20740;DHT22;10530;49.968;19.844;2022-08-04T12:14:37;33.80;36.30
20740;DHT22;10530;49.968;19.844;2022-08-04T12:19:56;33.30;39.50
20740;DHT22;10530;49.968;19.844;2022-08-04T12:25:07;32.10;39.00
20740;DHT22;10530;49.968;19.844;2022-08-04T12:30:11;33.30;39.80
20740;DHT22;10530;49.968;19.844;2022-08-04T12:35:42;33.60;40.10
20740;DHT22;10530;49.968;19.844;2022-08-04T12:41:08;33.90;40.40
20740;DHT22;10530;49.968;19.844;2022-08-04T12:46:23;32.60;40.00
20740;DHT22;10530;49.968;19.844;2022-08-04T12:51:27;32.70;37.00
20740;DHT22;10530;49.968;19.844;2022-08-04T12:56:52;32.50;38.30
20740;DHT22;10530;49.968;19.844;2022-08-04T13:01:59;32.30;38.60
20740;DHT22;10530;49.968;19.844;2022-08-04T13:07:12;32.80;36.60
20740;DHT22;10530;49.968;19.844;2022-08-04T13:12:20;33.30;35.80
20740;DHT22;10530;49.968;19.844;2022-08-04T13:18:04;33.60;38.40
20740;DHT22;10530;49.968;19.844;2022-08-04T13:23:17;33.80;37.90
20740;DHT22;10530;49.968;19.844;2022-08-04T13:28:25;34.50;36.80
20740;DHT22;10530;49.968;19.844;2022-08-04T13:33:35;34.20;36.10
20740;DHT22;10530;49.968;19.844;2022-08-04T13:38:45;33.70;36.80
20740;DHT22;10530;49.968;19.844;2022-08-04T13:43:53;33.30;36.70
20740;DHT22;10530;49.968;19.844;2022-08-04T13:49:18;33.40;39.50
20740;DHT22;10530;49.968;19.844;2022-08-04T13:54:46;32.80;34.80
20740;DHT22;10530;49.968;19.844;2022-08-04T14:00:03;33.50;39.30
20740;DHT22;10530;49.968;19.844;2022-08-04T14:05:20;33.70;37.20
20740;DHT22;10530;49.968;19.844;2022-08-04T14:10:29;33.30;34.90
20740;DHT22;10530;49.968;19.844;2022-08-04T14:15:41;32.50;35.60
20740;DHT22;10530;49.968;19.844;2022-08-04T14:21:13;32.30;38.80
20740;DHT22;10530;49.968;19.844;2022-08-04T14:26:20;33.20;36.80
20740;DHT22;10530;49.968;19.844;2022-08-04T14:31:34;32.80;37.10
20740;DHT22;10530;49.968;19.844;2022-08-04T14:37:06;32.50;37.00
20740;DHT22;10530;49.968;19.844;2022-08-04T14:42:39;31.50;35.90
20740;DHT22;10530;49.968;19.844;2022-08-04T14:47:45;31.60;38.10
20740;DHT22;10530;49.968;19.844;2022-08-04T14:53:05;31.90;39.80
20740;DHT22;10530;49.968;19.844;2022-08-04T14:58:30;32.20;38.60
20740;DHT22;10530;49.968;19.844;2022-08-04T15:03:43;32.20;38.30
20740;DHT22;10530;49.968;19.844;2022-08-04T15:09:00;31.40;39.90
20740;DHT22;10530;49.968;19.844;2022-08-04T15:14:04;31.80;39.10
20740;DHT22;10530;49.968;19.844;2022-08-04T15:19:07;31.10;38.10
20740;DHT22;10530;49.968;19.844;2022-08-04T15:24:10;30.90;40.20
20740;DHT22;10530;49.968;19.844;2022-08-04T15:29:18;31.20;40.20
20740;DHT22;10530;49.968;19.844;2022-08-04T15:34:22;31.20;41.00
20740;DHT22;10530;49.968;19.844;2022-08-04T15:39:33;30.90;40.60
20740;DHT22;10530;49.968;19.844;2022-08-04T15:45:03;31.20;38.40
20740;DHT22;10530;49.968;19.844;2022-08-04T15:50:12;30.90;41.10
20740;DHT22;10530;49.968;19.844;2022-08-04T15:55:38;30.60;40.60
20740;DHT22;10530;49.968;19.844;2022-08-04T16:05:50;30.70;42.00
20740;DHT22;10530;49.968;19.844;2022-08-04T16:10:53;30.30;40.40
20740;DHT22;10530;49.968;19.844;2022-08-04T16:15:56;30.50;39.10
20740;DHT22;10530;49.968;19.844;2022-08-04T16:21:16;30.10;40.70
20740;DHT22;10530;49.968;19.844;2022-08-04T16:37:12;29.80;42.70
20740;DHT22;10530;49.968;19.844;2022-08-04T16:42:31;29.60;44.00
20740;DHT22;10530;49.968;19.844;2022-08-04T16:52:51;29.10;44.30
20740;DHT22;10530;49.968;19.844;2022-08-04T16:57:57;28.00;47.10
20740;DHT22;10530;49.968;19.844;2022-08-04T17:03:04;27.70;49.20
20740;DHT22;10530;49.968;19.844;2022-08-04T17:08:08;27.20;53.00
20740;DHT22;10530;49.968;19.844;2022-08-04T17:13:37;26.90;56.30
20740;DHT22;10530;49.968;19.844;2022-08-04T17:19:01;26.50;60.30
20740;DHT22;10530;49.968;19.844;2022-08-04T17:24:05;26.20;68.70
20740;DHT22;10530;49.968;19.844;2022-08-04T17:29:17;26.00;73.00
20740;DHT22;10530;49.968;19.844;2022-08-04T17:34:21;26.00;72.00
20740;DHT22;10530;49.968;19.844;2022-08-04T17:39:28;25.90;72.90
20740;DHT22;10530;49.968;19.844;2022-08-04T17:44:39;25.70;87.60
20740;DHT22;10530;49.968;19.844;2022-08-04T17:49:43;25.40;96.80
20740;DHT22;10530;49.968;19.844;2022-08-04T17:54:58;25.00;93.00
20740;DHT22;10530;49.968;19.844;2022-08-04T18:00:04;24.70;99.90
20740;DHT22;10530;49.968;19.844;2022-08-04T18:05:10;24.30;99.90
20740;DHT22;10530;49.968;19.844;2022-08-04T18:10:15;23.90;99.90
20740;DHT22;10530;49.968;19.844;2022-08-04T18:15:37;23.60;99.90
20740;DHT22;10530;49.968;19.844;2022-08-04T18:20:48;23.50;99.90
20740;DHT22;10530;49.968;19.844;2022-08-04T18:25:51;23.40;99.90
20740;DHT22;10530;49.968;19.844;2022-08-04T18:30:54;23.10;99.90
20740;DHT22;10530;49.968;19.844;2022-08-04T18:35:57;23.00;99.90
20740;DHT22;10530;49.968;19.844;2022-08-04T18:41:20;22.70;99.90
20740;DHT22;10530;49.968;19.844;2022-08-04T18:46:23;22.40;99.90
20740;DHT22;10530;49.968;19.844;2022-08-04T18:51:28;22.20;99.90
20740;DHT22;10530;49.968;19.844;2022-08-04T18:56:33;22.10;99.90
20740;DHT22;10530;49.968;19.844;2022-08-04T19:01:37;22.00;99.90
20740;DHT22;10530;49.968;19.844;2022-08-04T19:07:05;21.80;99.90
20740;DHT22;10530;49.968;19.844;2022-08-04T19:12:28;21.60;99.90
20740;DHT22;10530;49.968;19.844;2022-08-04T19:17:31;21.50;99.90
20740;DHT22;10530;49.968;19.844;2022-08-04T19:22:54;21.30;99.90
20740;DHT22;10530;49.968;19.844;2022-08-04T19:28:17;21.40;99.90
20740;DHT22;10530;49.968;19.844;2022-08-04T19:33:22;21.40;99.90
20740;DHT22;10530;49.968;19.844;2022-08-04T19:38:26;21.30;99.90
20740;DHT22;10530;49.968;19.844;2022-08-04T19:43:31;21.40;99.90
20740;DHT22;10530;49.968;19.844;2022-08-04T19:48:35;21.50;99.90
20740;DHT22;10530;49.968;19.844;2022-08-04T19:53:39;21.50;99.90
20740;DHT22;10530;49.968;19.844;2022-08-04T19:58:45;21.20;99.90
20740;DHT22;10530;49.968;19.844;2022-08-04T20:03:49;21.20;99.90
20740;DHT22;10530;49.968;19.844;2022-08-04T20:09:12;21.30;99.90
20740;DHT22;10530;49.968;19.844;2022-08-04T20:14:28;21.50;99.90
20740;DHT22;10530;49.968;19.844;2022-08-04T20:19:34;21.40;99.90
20740;DHT22;10530;49.968;19.844;2022-08-04T20:24:37;21.40;99.90
20740;DHT22;10530;49.968;19.844;2022-08-04T20:29:53;21.30;99.90
20740;DHT22;10530;49.968;19.844;2022-08-04T20:34:57;21.20;99.90
20740;DHT22;10530;49.968;19.844;2022-08-04T20:40:00;21.10;99.90
20740;DHT22;10530;49.968;19.844;2022-08-04T20:45:06;20.90;99.90
20740;DHT22;10530;49.968;19.844;2022-08-04T20:50:17;20.90;99.90
20740;DHT22;10530;49.968;19.844;2022-08-04T20:55:31;20.90;99.90
20740;DHT22;10530;49.968;19.844;2022-08-04T21:00:54;20.80;99.90
20740;DHT22;10530;49.968;19.844;2022-08-04T21:05:58;20.40;99.90
20740;DHT22;10530;49.968;19.844;2022-08-04T21:11:02;20.00;99.90
20740;DHT22;10530;49.968;19.844;2022-08-04T21:16:10;19.60;99.90
20740;DHT22;10530;49.968;19.844;2022-08-04T21:21:32;19.30;99.90
20740;DHT22;10530;49.968;19.844;2022-08-04T21:26:36;18.90;99.90
20740;DHT22;10530;49.968;19.844;2022-08-04T21:31:44;18.60;99.90
20740;DHT22;10530;49.968;19.844;2022-08-04T21:36:52;18.40;99.90
20740;DHT22;10530;49.968;19.844;2022-08-04T21:41:56;18.10;99.90
20740;DHT22;10530;49.968;19.844;2022-08-04T21:47:19;18.00;99.90
20740;DHT22;10530;49.968;19.844;2022-08-04T21:52:42;17.90;99.90
20740;DHT22;10530;49.968;19.844;2022-08-04T21:57:46;17.70;99.90
20740;DHT22;10530;49.968;19.844;2022-08-04T22:02:50;17.50;99.90
20740;DHT22;10530;49.968;19.844;2022-08-04T22:07:54;17.30;99.90
20740;DHT22;10530;49.968;19.844;2022-08-04T22:12:57;17.00;99.90
20740;DHT22;10530;49.968;19.844;2022-08-04T22:18:04;16.80;99.90
20740;DHT22;10530;49.968;19.844;2022-08-04T22:23:07;16.80;99.90
20740;DHT22;10530;49.968;19.844;2022-08-04T22:28:29;16.60;99.90
20740;DHT22;10530;49.968;19.844;2022-08-04T22:33:34;16.50;99.90
20740;DHT22;10530;49.968;19.844;2022-08-04T22:38:56;16.50;99.90
20740;DHT22;10530;49.968;19.844;2022-08-04T22:44:08;16.50;99.90
20740;DHT22;10530;49.968;19.844;2022-08-04T22:49:16;16.40;99.90
20740;DHT22;10530;49.968;19.844;2022-08-04T22:54:26;16.30;99.90
20740;DHT22;10530;49.968;19.844;2022-08-04T22:59:32;16.20;99.90
20740;DHT22;10530;49.968;19.844;2022-08-04T23:04:35;16.10;99.90
20740;DHT22;10530;49.968;19.844;2022-08-04T23:09:39;16.10;99.90
20740;DHT22;10530;49.968;19.844;2022-08-04T23:14:55;16.00;99.90
20740;DHT22;10530;49.968;19.844;2022-08-04T23:19:59;15.90;99.90
20740;DHT22;10530;49.968;19.844;2022-08-04T23:25:02;15.80;99.90
20740;DHT22;10530;49.968;19.844;2022-08-04T23:30:05;15.80;99.90
20740;DHT22;10530;49.968;19.844;2022-08-04T23:35:09;15.90;99.90
20740;DHT22;10530;49.968;19.844;2022-08-04T23:40:16;16.00;99.90
20740;DHT22;10530;49.968;19.844;2022-08-04T23:45:36;16.10;99.90
20740;DHT22;10530;49.968;19.844;2022-08-04T23:51:08;16.20;99.90
20740;DHT22;10530;49.968;19.844;2022-08-04T23:56:16;16.30;99.90
